sensor_id;sensor_type;location;lat;lon;timestamp;pressure;altitude;pressure_sealevel;temperature;humidity
50268;BME280;36153;50.960;6.220;2023-05-21T00:02:27;100693.56;;;18.57;54.49
50268;BME280;36153;50.960;6.220;2023-05-21T00:05:29;100690.72;;;18.66;54.58
50268;BME280;36153;50.960;6.220;2023-05-21T00:08:30;100691.56;;;18.70;54.27
50268;BME280;36153;50.960;6.220;2023-05-21T00:11:33;100692.44;;;18.69;54.13
50268;BME280;36153;50.960;6.220;2023-05-21T00:14:34;100691.81;;;18.56;54.48
50268;BME280;36153;50.960;6.220;2023-05-21T00:17:35;100690.94;;;18.57;54.40
50268;BME280;36153;50.960;6.220;2023-05-21T00:20:38;100683.91;;;18.56;54.24
50268;BME280;36153;50.960;6.220;2023-05-21T00:23:43;100684.84;;;18.53;54.44
50268;BME280;36153;50.960;6.220;2023-05-21T00:26:44;100684.97;;;18.47;54.63
50268;BME280;36153;50.960;6.220;2023-05-21T00:29:44;100685.09;;;18.39;54.44
50268;BME280;36153;50.960;6.220;2023-05-21T00:32:45;100686.06;;;18.34;55.07
50268;BME280;36153;50.960;6.220;2023-05-21T00:35:45;100683.53;;;18.29;54.86
50268;BME280;36153;50.960;6.220;2023-05-21T00:38:49;100676.44;;;18.31;54.85
50268;BME280;36153;50.960;6.220;2023-05-21T00:41:50;100676.53;;;18.27;54.67
50268;BME280;36153;50.960;6.220;2023-05-21T00:44:50;100671.78;;;18.47;54.40
50268;BME280;36153;50.960;6.220;2023-05-21T00:47:55;100672.66;;;18.46;54.14
50268;BME280;36153;50.960;6.220;2023-05-21T00:50:56;100674.44;;;18.46;54.12
50268;BME280;36153;50.960;6.220;2023-05-21T00:53:56;100671.03;;;18.40;54.45
50268;BME280;36153;50.960;6.220;2023-05-21T00:56:57;100671.00;;;18.42;54.37
50268;BME280;36153;50.960;6.220;2023-05-21T00:59:57;100669.25;;;18.41;54.44
50268;BME280;36153;50.960;6.220;2023-05-21T01:02:59;100678.97;;;18.39;54.27
50268;BME280;36153;50.960;6.220;2023-05-21T01:05:59;100674.72;;;18.30;54.27
50268;BME280;36153;50.960;6.220;2023-05-21T01:09:01;100679.03;;;18.36;54.39
50268;BME280;36153;50.960;6.220;2023-05-21T01:12:03;100675.72;;;18.23;54.77
50268;BME280;36153;50.960;6.220;2023-05-21T01:15:05;100668.59;;;18.28;54.41
50268;BME280;36153;50.960;6.220;2023-05-21T01:18:10;100671.13;;;18.33;54.37
50268;BME280;36153;50.960;6.220;2023-05-21T01:21:11;100672.88;;;18.34;54.10
50268;BME280;36153;50.960;6.220;2023-05-21T01:24:14;100664.16;;;18.32;54.43
50268;BME280;36153;50.960;6.220;2023-05-21T01:27:14;100661.47;;;18.35;54.49
50268;BME280;36153;50.960;6.220;2023-05-21T01:30:17;100660.47;;;18.40;54.30
50268;BME280;36153;50.960;6.220;2023-05-21T01:36:31;100660.44;;;18.42;54.41
50268;BME280;36153;50.960;6.220;2023-05-21T01:39:37;100657.94;;;18.36;54.68
50268;BME280;36153;50.960;6.220;2023-05-21T01:42:41;100661.41;;;18.38;54.57
50268;BME280;36153;50.960;6.220;2023-05-21T01:45:43;100659.44;;;18.49;54.63
50268;BME280;36153;50.960;6.220;2023-05-21T01:48:55;100661.16;;;18.50;54.13
50268;BME280;36153;50.960;6.220;2023-05-21T01:51:56;100655.78;;;18.58;53.83
50268;BME280;36153;50.960;6.220;2023-05-21T01:54:56;100664.47;;;18.62;53.83
50268;BME280;36153;50.960;6.220;2023-05-21T01:57:57;100653.06;;;18.61;53.71
50268;BME280;36153;50.960;6.220;2023-05-21T02:00:58;100654.78;;;18.64;53.70
50268;BME280;36153;50.960;6.220;2023-05-21T02:04:01;100650.56;;;18.53;53.97
50268;BME280;36153;50.960;6.220;2023-05-21T02:07:02;100655.06;;;18.47;53.83
50268;BME280;36153;50.960;6.220;2023-05-21T02:10:02;100656.81;;;18.48;53.78
50268;BME280;36153;50.960;6.220;2023-05-21T02:13:04;100655.06;;;18.47;54.11
50268;BME280;36153;50.960;6.220;2023-05-21T02:16:04;100644.72;;;18.37;54.05
50268;BME280;36153;50.960;6.220;2023-05-21T02:19:09;100636.16;;;18.24;54.58
50268;BME280;36153;50.960;6.220;2023-05-21T02:22:13;100640.72;;;18.16;54.85
50268;BME280;36153;50.960;6.220;2023-05-21T02:25:15;100632.97;;;18.07;55.16
50268;BME280;36153;50.960;6.220;2023-05-21T02:28:15;100635.66;;;18.04;55.25
50268;BME280;36153;50.960;6.220;2023-05-21T02:31:16;100635.47;;;18.13;55.39
50268;BME280;36153;50.960;6.220;2023-05-21T02:34:16;100628.44;;;18.15;55.32
50268;BME280;36153;50.960;6.220;2023-05-21T02:37:19;100625.06;;;18.07;55.43
50268;BME280;36153;50.960;6.220;2023-05-21T02:40:19;100631.13;;;18.12;55.33
50268;BME280;36153;50.960;6.220;2023-05-21T02:43:20;100631.91;;;18.17;55.31
50268;BME280;36153;50.960;6.220;2023-05-21T02:46:20;100625.63;;;18.24;55.22
50268;BME280;36153;50.960;6.220;2023-05-21T02:49:20;100615.63;;;17.94;55.97
50268;BME280;36153;50.960;6.220;2023-05-21T02:52:21;100622.59;;;17.98;55.87
50268;BME280;36153;50.960;6.220;2023-05-21T02:55:25;100626.97;;;17.99;55.91
50268;BME280;36153;50.960;6.220;2023-05-21T02:58:25;100627.78;;;18.02;56.26
50268;BME280;36153;50.960;6.220;2023-05-21T03:01:25;100624.06;;;18.14;55.94
50268;BME280;36153;50.960;6.220;2023-05-21T03:04:26;100624.09;;;18.13;55.60
50268;BME280;36153;50.960;6.220;2023-05-21T03:07:27;100621.53;;;18.08;55.59
50268;BME280;36153;50.960;6.220;2023-05-21T03:10:27;100621.69;;;17.99;55.74
50268;BME280;36153;50.960;6.220;2023-05-21T03:13:28;100621.00;;;17.86;56.23
50268;BME280;36153;50.960;6.220;2023-05-21T03:16:28;100620.09;;;17.88;56.40
50268;BME280;36153;50.960;6.220;2023-05-21T03:19:28;100622.66;;;17.93;56.25
50268;BME280;36153;50.960;6.220;2023-05-21T03:22:33;100620.06;;;17.91;56.15
50268;BME280;36153;50.960;6.220;2023-05-21T03:25:33;100611.28;;;17.93;55.99
50268;BME280;36153;50.960;6.220;2023-05-21T03:28:35;100611.28;;;17.93;55.89
50268;BME280;36153;50.960;6.220;2023-05-21T03:31:35;100603.38;;;17.89;56.22
50268;BME280;36153;50.960;6.220;2023-05-21T03:34:36;100601.97;;;17.68;56.42
50268;BME280;36153;50.960;6.220;2023-05-21T03:37:36;100600.94;;;17.77;56.97
50268;BME280;36153;50.960;6.220;2023-05-21T03:40:37;100604.44;;;17.79;57.07
50268;BME280;36153;50.960;6.220;2023-05-21T03:43:37;100604.38;;;17.82;56.47
50268;BME280;36153;50.960;6.220;2023-05-21T03:46:37;100599.94;;;17.86;56.66
50268;BME280;36153;50.960;6.220;2023-05-21T03:49:38;100604.25;;;17.90;56.86
50268;BME280;36153;50.960;6.220;2023-05-21T03:52:38;100608.59;;;17.96;56.64
50268;BME280;36153;50.960;6.220;2023-05-21T03:55:38;100615.53;;;18.00;56.45
50268;BME280;36153;50.960;6.220;2023-05-21T03:58:39;100620.00;;;17.95;56.31
50268;BME280;36153;50.960;6.220;2023-05-21T04:01:40;100628.72;;;17.97;56.48
50268;BME280;36153;50.960;6.220;2023-05-21T04:04:40;100628.56;;;18.07;56.38
50268;BME280;36153;50.960;6.220;2023-05-21T04:07:40;100626.69;;;18.14;55.90
50268;BME280;36153;50.960;6.220;2023-05-21T04:10:41;100627.56;;;18.13;55.97
50268;BME280;36153;50.960;6.220;2023-05-21T04:13:42;100634.84;;;18.00;55.86
50268;BME280;36153;50.960;6.220;2023-05-21T04:16:42;100639.16;;;18.04;56.48
50268;BME280;36153;50.960;6.220;2023-05-21T04:19:43;100638.84;;;18.21;56.04
50268;BME280;36153;50.960;6.220;2023-05-21T04:22:43;100641.38;;;18.29;55.92
50268;BME280;36153;50.960;6.220;2023-05-21T04:25:43;100642.06;;;18.39;55.78
50268;BME280;36153;50.960;6.220;2023-05-21T04:28:49;100642.06;;;18.39;55.49
50268;BME280;36153;50.960;6.220;2023-05-21T04:31:50;100639.25;;;18.47;55.39
50268;BME280;36153;50.960;6.220;2023-05-21T04:34:56;100630.38;;;18.52;55.30
50268;BME280;36153;50.960;6.220;2023-05-21T04:37:56;100627.56;;;18.62;55.00
50268;BME280;36153;50.960;6.220;2023-05-21T04:40:56;100638.28;;;18.52;55.27
50268;BME280;36153;50.960;6.220;2023-05-21T04:43:57;100636.56;;;18.51;55.37
50268;BME280;36153;50.960;6.220;2023-05-21T04:46:58;100640.78;;;18.60;55.32
50268;BME280;36153;50.960;6.220;2023-05-21T04:50:00;100639.63;;;18.75;55.07
50268;BME280;36153;50.960;6.220;2023-05-21T04:53:01;100636.22;;;18.68;54.82
50268;BME280;36153;50.960;6.220;2023-05-21T04:56:02;100632.00;;;18.59;55.68
50268;BME280;36153;50.960;6.220;2023-05-21T04:59:03;100632.44;;;18.82;55.38
50268;BME280;36153;50.960;6.220;2023-05-21T05:02:04;100630.66;;;18.82;55.40
50268;BME280;36153;50.960;6.220;2023-05-21T05:05:04;100625.63;;;18.70;54.76
50268;BME280;36153;50.960;6.220;2023-05-21T05:08:05;100625.78;;;18.64;55.70
50268;BME280;36153;50.960;6.220;2023-05-21T05:11:06;100637.78;;;18.77;55.68
50268;BME280;36153;50.960;6.220;2023-05-21T05:14:12;100624.50;;;18.83;55.35
50268;BME280;36153;50.960;6.220;2023-05-21T05:17:12;100611.13;;;18.92;55.05
50268;BME280;36153;50.960;6.220;2023-05-21T05:20:15;100625.28;;;18.88;55.28
50268;BME280;36153;50.960;6.220;2023-05-21T05:23:16;100617.38;;;18.87;55.47
50268;BME280;36153;50.960;6.220;2023-05-21T05:26:16;100614.53;;;18.98;55.47
50268;BME280;36153;50.960;6.220;2023-05-21T05:29:17;100613.72;;;18.94;55.27
50268;BME280;36153;50.960;6.220;2023-05-21T05:32:17;100609.19;;;19.01;55.01
50268;BME280;36153;50.960;6.220;2023-05-21T05:35:18;100604.78;;;19.03;55.51
50268;BME280;36153;50.960;6.220;2023-05-21T05:38:18;100609.50;;;19.26;55.29
50268;BME280;36153;50.960;6.220;2023-05-21T05:41:18;100604.81;;;19.40;54.18
50268;BME280;36153;50.960;6.220;2023-05-21T05:44:21;100614.00;;;19.22;55.24
50268;BME280;36153;50.960;6.220;2023-05-21T05:47:21;100609.94;;;19.47;54.43
50268;BME280;36153;50.960;6.220;2023-05-21T05:50:22;100620.41;;;19.51;54.38
50268;BME280;36153;50.960;6.220;2023-05-21T05:53:22;100623.56;;;19.66;54.73
50268;BME280;36153;50.960;6.220;2023-05-21T05:56:22;100625.44;;;19.60;53.92
50268;BME280;36153;50.960;6.220;2023-05-21T05:59:23;100629.50;;;19.75;54.15
50268;BME280;36153;50.960;6.220;2023-05-21T06:02:23;100621.59;;;19.74;53.83
50268;BME280;36153;50.960;6.220;2023-05-21T06:05:23;100625.03;;;19.77;53.27
50268;BME280;36153;50.960;6.220;2023-05-21T06:08:24;100635.44;;;19.85;53.92
50268;BME280;36153;50.960;6.220;2023-05-21T06:11:24;100634.16;;;20.02;53.25
50268;BME280;36153;50.960;6.220;2023-05-21T06:14:24;100622.19;;;20.21;52.81
50268;BME280;36153;50.960;6.220;2023-05-21T06:17:25;100629.72;;;20.37;52.60
50268;BME280;36153;50.960;6.220;2023-05-21T06:20:25;100625.41;;;20.33;52.97
50268;BME280;36153;50.960;6.220;2023-05-21T06:23:26;100628.38;;;20.53;52.44
50268;BME280;36153;50.960;6.220;2023-05-21T06:26:27;100638.47;;;20.72;52.38
50268;BME280;36153;50.960;6.220;2023-05-21T06:29:27;100641.69;;;21.13;51.27
50268;BME280;36153;50.960;6.220;2023-05-21T06:32:28;100639.72;;;21.48;50.34
50268;BME280;36153;50.960;6.220;2023-05-21T06:35:28;100636.00;;;21.55;50.80
50268;BME280;36153;50.960;6.220;2023-05-21T06:38:28;100633.69;;;21.73;49.37
50268;BME280;36153;50.960;6.220;2023-05-21T06:41:29;100636.09;;;22.06;49.71
50268;BME280;36153;50.960;6.220;2023-05-21T06:44:29;100630.47;;;22.42;48.19
50268;BME280;36153;50.960;6.220;2023-05-21T06:47:30;100628.22;;;22.80;48.19
50268;BME280;36153;50.960;6.220;2023-05-21T06:50:31;100623.81;;;23.02;47.12
50268;BME280;36153;50.960;6.220;2023-05-21T06:53:31;100631.75;;;23.02;46.73
50268;BME280;36153;50.960;6.220;2023-05-21T06:56:32;100624.97;;;22.72;47.42
50268;BME280;36153;50.960;6.220;2023-05-21T06:59:32;100630.94;;;23.00;46.88
50268;BME280;36153;50.960;6.220;2023-05-21T07:02:33;100623.47;;;22.88;46.63
50268;BME280;36153;50.960;6.220;2023-05-21T07:05:33;100630.50;;;22.89;46.06
50268;BME280;36153;50.960;6.220;2023-05-21T07:08:33;100627.56;;;22.73;48.02
50268;BME280;36153;50.960;6.220;2023-05-21T07:11:34;100633.50;;;22.80;47.29
50268;BME280;36153;50.960;6.220;2023-05-21T07:14:35;100631.44;;;22.88;47.23
50268;BME280;36153;50.960;6.220;2023-05-21T07:17:35;100629.25;;;22.99;46.62
50268;BME280;36153;50.960;6.220;2023-05-21T07:20:36;100630.16;;;22.98;46.74
50268;BME280;36153;50.960;6.220;2023-05-21T07:23:36;100624.50;;;23.08;46.57
50268;BME280;36153;50.960;6.220;2023-05-21T07:26:37;100625.09;;;23.16;46.10
50268;BME280;36153;50.960;6.220;2023-05-21T07:29:38;100627.66;;;23.41;45.87
50268;BME280;36153;50.960;6.220;2023-05-21T07:32:38;100636.34;;;23.45;45.99
50268;BME280;36153;50.960;6.220;2023-05-21T07:35:39;100628.78;;;23.56;45.46
50268;BME280;36153;50.960;6.220;2023-05-21T07:38:40;100630.31;;;23.63;45.62
50268;BME280;36153;50.960;6.220;2023-05-21T07:41:40;100633.38;;;23.52;45.50
50268;BME280;36153;50.960;6.220;2023-05-21T07:44:41;100632.88;;;23.87;45.56
50268;BME280;36153;50.960;6.220;2023-05-21T07:47:47;100642.94;;;24.22;44.51
50268;BME280;36153;50.960;6.220;2023-05-21T07:50:47;100634.97;;;24.42;43.97
50268;BME280;36153;50.960;6.220;2023-05-21T07:53:51;100627.19;;;24.17;44.70
50268;BME280;36153;50.960;6.220;2023-05-21T07:56:52;100630.38;;;24.25;44.34
50268;BME280;36153;50.960;6.220;2023-05-21T07:59:52;100629.19;;;24.32;43.98
50268;BME280;36153;50.960;6.220;2023-05-21T08:02:52;100617.06;;;24.66;43.90
50268;BME280;36153;50.960;6.220;2023-05-21T08:05:53;100620.13;;;24.36;43.66
50268;BME280;36153;50.960;6.220;2023-05-21T08:08:53;100615.50;;;24.21;44.66
50268;BME280;36153;50.960;6.220;2023-05-21T08:11:54;100612.41;;;24.51;43.80
50268;BME280;36153;50.960;6.220;2023-05-21T08:14:56;100612.81;;;24.42;44.47
50268;BME280;36153;50.960;6.220;2023-05-21T08:17:57;100617.53;;;24.76;43.39
50268;BME280;36153;50.960;6.220;2023-05-21T08:20:57;100608.31;;;25.02;43.22
50268;BME280;36153;50.960;6.220;2023-05-21T08:23:59;100602.53;;;24.74;43.71
50268;BME280;36153;50.960;6.220;2023-05-21T08:27:00;100607.00;;;24.92;43.45
50268;BME280;36153;50.960;6.220;2023-05-21T08:30:00;100610.03;;;25.03;43.05
50268;BME280;36153;50.960;6.220;2023-05-21T08:33:01;100611.66;;;24.87;42.75
50268;BME280;36153;50.960;6.220;2023-05-21T08:36:02;100602.81;;;24.67;43.97
50268;BME280;36153;50.960;6.220;2023-05-21T08:39:03;100609.09;;;25.04;43.37
50268;BME280;36153;50.960;6.220;2023-05-21T08:42:14;100609.75;;;25.10;42.24
50268;BME280;36153;50.960;6.220;2023-05-21T08:45:22;100609.63;;;25.49;41.64
50268;BME280;36153;50.960;6.220;2023-05-21T08:48:22;100600.44;;;25.74;42.01
50268;BME280;36153;50.960;6.220;2023-05-21T08:51:23;100609.13;;;25.60;42.25
50268;BME280;36153;50.960;6.220;2023-05-21T08:54:27;100616.31;;;25.02;43.32
50268;BME280;36153;50.960;6.220;2023-05-21T08:57:29;100616.84;;;25.28;42.99
50268;BME280;36153;50.960;6.220;2023-05-21T09:00:30;100610.56;;;26.37;41.12
50268;BME280;36153;50.960;6.220;2023-05-21T09:03:31;100609.88;;;26.50;39.94
50268;BME280;36153;50.960;6.220;2023-05-21T09:06:32;100599.09;;;25.83;41.49
50268;BME280;36153;50.960;6.220;2023-05-21T09:09:38;100609.94;;;26.15;41.33
50268;BME280;36153;50.960;6.220;2023-05-21T09:12:41;100610.47;;;26.21;40.60
50268;BME280;36153;50.960;6.220;2023-05-21T09:15:41;100609.63;;;26.21;41.30
50268;BME280;36153;50.960;6.220;2023-05-21T09:18:41;100611.38;;;26.89;40.28
50268;BME280;36153;50.960;6.220;2023-05-21T09:21:42;100624.47;;;26.60;40.34
50268;BME280;36153;50.960;6.220;2023-05-21T09:24:42;100610.41;;;26.23;40.74
50268;BME280;36153;50.960;6.220;2023-05-21T09:27:45;100605.25;;;26.71;40.18
50268;BME280;36153;50.960;6.220;2023-05-21T09:30:48;100606.75;;;27.08;39.49
50268;BME280;36153;50.960;6.220;2023-05-21T09:33:51;100605.09;;;27.06;39.64
50268;BME280;36153;50.960;6.220;2023-05-21T09:36:55;100608.75;;;26.54;40.05
50268;BME280;36153;50.960;6.220;2023-05-21T09:39:56;100618.34;;;26.58;40.67
50268;BME280;36153;50.960;6.220;2023-05-21T09:42:56;100611.78;;;27.61;38.94
50268;BME280;36153;50.960;6.220;2023-05-21T09:45:59;100601.00;;;27.93;37.53
50268;BME280;36153;50.960;6.220;2023-05-21T09:48:59;100594.09;;;27.58;38.73
50268;BME280;36153;50.960;6.220;2023-05-21T09:52:00;100595.16;;;27.56;38.93
50268;BME280;36153;50.960;6.220;2023-05-21T09:55:10;100598.50;;;28.06;38.18
50268;BME280;36153;50.960;6.220;2023-05-21T09:58:12;100592.75;;;27.82;37.85
50268;BME280;36153;50.960;6.220;2023-05-21T10:01:12;100597.69;;;27.73;38.97
50268;BME280;36153;50.960;6.220;2023-05-21T10:04:13;100595.34;;;26.89;39.95
50268;BME280;36153;50.960;6.220;2023-05-21T10:07:17;100600.16;;;26.98;39.39
50268;BME280;36153;50.960;6.220;2023-05-21T10:10:30;100588.84;;;27.57;38.57
50268;BME280;36153;50.960;6.220;2023-05-21T10:13:33;100580.06;;;28.30;38.08
50268;BME280;36153;50.960;6.220;2023-05-21T10:16:36;100578.25;;;28.45;37.74
50268;BME280;36153;50.960;6.220;2023-05-21T10:19:36;100572.44;;;27.93;38.19
50268;BME280;36153;50.960;6.220;2023-05-21T10:22:38;100567.53;;;27.71;38.43
50268;BME280;36153;50.960;6.220;2023-05-21T10:25:40;100572.53;;;27.92;38.26
50268;BME280;36153;50.960;6.220;2023-05-21T10:28:40;100563.72;;;27.75;38.55
50268;BME280;36153;50.960;6.220;2023-05-21T10:31:43;100564.00;;;28.16;37.92
50268;BME280;36153;50.960;6.220;2023-05-21T10:34:46;100562.09;;;28.03;38.23
50268;BME280;36153;50.960;6.220;2023-05-21T10:37:48;100559.41;;;28.18;38.03
50268;BME280;36153;50.960;6.220;2023-05-21T10:40:52;100565.91;;;28.57;37.87
50268;BME280;36153;50.960;6.220;2023-05-21T10:44:25;100559.06;;;29.36;36.51
50268;BME280;36153;50.960;6.220;2023-05-21T10:54:31;100558.84;;;29.39;36.24
50268;BME280;36153;50.960;6.220;2023-05-21T11:01:06;100547.97;;;29.55;36.41
50268;BME280;36153;50.960;6.220;2023-05-21T11:04:07;100544.22;;;29.98;36.34
50268;BME280;36153;50.960;6.220;2023-05-21T11:07:08;100541.47;;;29.72;36.87
50268;BME280;36153;50.960;6.220;2023-05-21T11:10:31;100537.75;;;29.88;35.39
50268;BME280;36153;50.960;6.220;2023-05-21T11:13:46;100537.38;;;28.85;37.80
50268;BME280;36153;50.960;6.220;2023-05-21T11:16:49;100529.22;;;28.30;37.99
50268;BME280;36153;50.960;6.220;2023-05-21T11:19:50;100535.59;;;28.42;38.06
50268;BME280;36153;50.960;6.220;2023-05-21T11:22:50;100525.47;;;28.61;38.38
50268;BME280;36153;50.960;6.220;2023-05-21T11:26:00;100518.75;;;29.10;37.46
50268;BME280;36153;50.960;6.220;2023-05-21T11:32:09;100510.34;;;28.46;38.48
50268;BME280;36153;50.960;6.220;2023-05-21T11:35:12;100511.16;;;29.44;36.96
50268;BME280;36153;50.960;6.220;2023-05-21T11:38:12;100513.69;;;30.25;34.60
50268;BME280;36153;50.960;6.220;2023-05-21T11:41:18;100500.03;;;30.54;35.29
50268;BME280;36153;50.960;6.220;2023-05-21T11:44:47;100508.59;;;30.96;34.34
50268;BME280;36153;50.960;6.220;2023-05-21T11:47:48;100500.22;;;30.88;35.19
50268;BME280;36153;50.960;6.220;2023-05-21T11:50:49;100508.19;;;30.89;34.85
50268;BME280;36153;50.960;6.220;2023-05-21T11:53:50;100503.91;;;30.24;35.30
50268;BME280;36153;50.960;6.220;2023-05-21T11:56:53;100499.03;;;30.55;35.44
50268;BME280;36153;50.960;6.220;2023-05-21T11:59:54;100505.97;;;29.94;36.01
50268;BME280;36153;50.960;6.220;2023-05-21T12:02:55;100499.84;;;30.18;36.25
50268;BME280;36153;50.960;6.220;2023-05-21T12:06:03;100491.44;;;29.71;35.82
50268;BME280;36153;50.960;6.220;2023-05-21T12:09:04;100493.06;;;28.66;37.84
50268;BME280;36153;50.960;6.220;2023-05-21T12:12:06;100481.75;;;29.43;37.33
50268;BME280;36153;50.960;6.220;2023-05-21T12:15:08;100482.56;;;30.22;36.21
50268;BME280;36153;50.960;6.220;2023-05-21T12:18:09;100483.44;;;30.97;34.35
50268;BME280;36153;50.960;6.220;2023-05-21T12:21:10;100484.09;;;31.36;34.52
50268;BME280;36153;50.960;6.220;2023-05-21T12:24:10;100486.28;;;31.31;34.67
50268;BME280;36153;50.960;6.220;2023-05-21T12:27:11;100486.66;;;31.38;34.57
50268;BME280;36153;50.960;6.220;2023-05-21T12:30:12;100487.53;;;31.74;34.36
50268;BME280;36153;50.960;6.220;2023-05-21T12:33:13;100482.00;;;31.64;34.21
50268;BME280;36153;50.960;6.220;2023-05-21T12:36:27;100488.88;;;31.91;33.80
50268;BME280;36153;50.960;6.220;2023-05-21T12:39:28;100488.31;;;32.21;33.24
50268;BME280;36153;50.960;6.220;2023-05-21T12:42:31;100497.34;;;32.65;32.93
50268;BME280;36153;50.960;6.220;2023-05-21T12:45:34;100497.13;;;32.46;33.20
50268;BME280;36153;50.960;6.220;2023-05-21T12:48:36;100487.66;;;32.63;32.65
50268;BME280;36153;50.960;6.220;2023-05-21T12:51:38;100481.53;;;32.49;32.56
50268;BME280;36153;50.960;6.220;2023-05-21T12:54:40;100480.19;;;31.87;33.59
50268;BME280;36153;50.960;6.220;2023-05-21T12:57:44;100473.22;;;32.64;33.17
50268;BME280;36153;50.960;6.220;2023-05-21T13:00:45;100479.81;;;32.71;33.37
50268;BME280;36153;50.960;6.220;2023-05-21T13:03:46;100472.34;;;33.07;32.43
50268;BME280;36153;50.960;6.220;2023-05-21T13:06:46;100473.28;;;32.85;32.73
50268;BME280;36153;50.960;6.220;2023-05-21T13:09:46;100479.09;;;32.69;33.03
50268;BME280;36153;50.960;6.220;2023-05-21T13:12:47;100482.09;;;33.31;32.27
50268;BME280;36153;50.960;6.220;2023-05-21T13:15:48;100472.53;;;33.69;31.08
50268;BME280;36153;50.960;6.220;2023-05-21T13:18:48;100473.44;;;33.79;31.24
50268;BME280;36153;50.960;6.220;2023-05-21T13:21:48;100467.53;;;33.85;31.41
50268;BME280;36153;50.960;6.220;2023-05-21T13:24:49;100470.00;;;33.98;30.86
50268;BME280;36153;50.960;6.220;2023-05-21T13:27:50;100471.88;;;33.02;31.94
50268;BME280;36153;50.960;6.220;2023-05-21T13:30:51;100471.00;;;32.69;33.15
50268;BME280;36153;50.960;6.220;2023-05-21T13:33:54;100466.88;;;32.97;32.20
50268;BME280;36153;50.960;6.220;2023-05-21T13:36:54;100468.72;;;32.42;32.18
50268;BME280;36153;50.960;6.220;2023-05-21T13:39:54;100471.31;;;32.32;32.56
50268;BME280;36153;50.960;6.220;2023-05-21T13:42:55;100463.19;;;32.98;31.82
50268;BME280;36153;50.960;6.220;2023-05-21T13:45:55;100469.50;;;32.76;32.42
50268;BME280;36153;50.960;6.220;2023-05-21T13:48:56;100465.91;;;32.43;33.12
50268;BME280;36153;50.960;6.220;2023-05-21T13:51:56;100465.06;;;33.19;31.54
50268;BME280;36153;50.960;6.220;2023-05-21T13:54:57;100457.38;;;33.14;31.04
50268;BME280;36153;50.960;6.220;2023-05-21T13:57:57;100463.56;;;32.94;31.83
50268;BME280;36153;50.960;6.220;2023-05-21T14:00:57;100460.78;;;32.84;31.62
50268;BME280;36153;50.960;6.220;2023-05-21T14:03:58;100459.28;;;32.47;32.11
50268;BME280;36153;50.960;6.220;2023-05-21T14:07:03;100446.88;;;33.00;32.24
50268;BME280;36153;50.960;6.220;2023-05-21T14:10:05;100450.13;;;33.15;32.13
50268;BME280;36153;50.960;6.220;2023-05-21T14:13:06;100441.97;;;33.68;30.97
50268;BME280;36153;50.960;6.220;2023-05-21T14:16:06;100446.78;;;33.23;31.53
50268;BME280;36153;50.960;6.220;2023-05-21T14:19:09;100434.72;;;33.06;32.25
50268;BME280;36153;50.960;6.220;2023-05-21T14:22:10;100433.78;;;33.49;31.51
50268;BME280;36153;50.960;6.220;2023-05-21T14:25:10;100428.31;;;33.91;30.95
50268;BME280;36153;50.960;6.220;2023-05-21T14:28:10;100429.84;;;34.15;30.71
50268;BME280;36153;50.960;6.220;2023-05-21T14:31:11;100424.94;;;33.89;31.55
50268;BME280;36153;50.960;6.220;2023-05-21T14:34:11;100426.16;;;33.64;31.29
50268;BME280;36153;50.960;6.220;2023-05-21T14:37:11;100429.44;;;33.89;31.28
50268;BME280;36153;50.960;6.220;2023-05-21T14:40:12;100426.28;;;34.14;30.60
50268;BME280;36153;50.960;6.220;2023-05-21T14:43:13;100432.91;;;34.00;30.92
50268;BME280;36153;50.960;6.220;2023-05-21T14:46:13;100422.50;;;33.65;31.10
50268;BME280;36153;50.960;6.220;2023-05-21T14:49:13;100415.13;;;33.67;31.22
50268;BME280;36153;50.960;6.220;2023-05-21T14:52:14;100416.72;;;34.00;30.51
50268;BME280;36153;50.960;6.220;2023-05-21T14:55:14;100414.16;;;33.99;30.58
50268;BME280;36153;50.960;6.220;2023-05-21T14:58:16;100412.66;;;34.26;30.68
50268;BME280;36153;50.960;6.220;2023-05-21T15:01:16;100415.91;;;34.19;30.38
50268;BME280;36153;50.960;6.220;2023-05-21T15:04:17;100409.34;;;34.12;30.29
50268;BME280;36153;50.960;6.220;2023-05-21T15:07:17;100414.78;;;34.22;30.24
50268;BME280;36153;50.960;6.220;2023-05-21T15:10:17;100408.09;;;33.55;30.64
50268;BME280;36153;50.960;6.220;2023-05-21T15:13:18;100404.53;;;33.54;30.79
50268;BME280;36153;50.960;6.220;2023-05-21T15:16:20;100405.91;;;33.06;31.17
50268;BME280;36153;50.960;6.220;2023-05-21T15:19:20;100416.44;;;33.09;31.88
50268;BME280;36153;50.960;6.220;2023-05-21T15:22:21;100409.25;;;32.98;32.49
50268;BME280;36153;50.960;6.220;2023-05-21T15:25:21;100404.13;;;32.95;32.20
50268;BME280;36153;50.960;6.220;2023-05-21T15:28:21;100400.53;;;32.30;32.74
50268;BME280;36153;50.960;6.220;2023-05-21T15:31:22;100413.78;;;31.76;33.72
50268;BME280;36153;50.960;6.220;2023-05-21T15:34:25;100408.38;;;31.65;33.18
50268;BME280;36153;50.960;6.220;2023-05-21T15:37:25;100404.22;;;31.61;33.91
50268;BME280;36153;50.960;6.220;2023-05-21T15:40:26;100402.78;;;31.32;34.58
50268;BME280;36153;50.960;6.220;2023-05-21T15:43:26;100401.09;;;31.43;33.96
50268;BME280;36153;50.960;6.220;2023-05-21T15:46:26;100410.94;;;31.78;33.52
50268;BME280;36153;50.960;6.220;2023-05-21T15:49:27;100398.03;;;32.49;32.42
50268;BME280;36153;50.960;6.220;2023-05-21T15:52:27;100395.28;;;32.72;32.12
50268;BME280;36153;50.960;6.220;2023-05-21T15:55:31;100403.94;;;33.08;31.96
50268;BME280;36153;50.960;6.220;2023-05-21T15:58:31;100400.59;;;32.95;32.44
50268;BME280;36153;50.960;6.220;2023-05-21T16:01:32;100399.59;;;32.96;32.17
50268;BME280;36153;50.960;6.220;2023-05-21T16:04:32;100402.13;;;33.30;31.79
50268;BME280;36153;50.960;6.220;2023-05-21T16:07:32;100400.69;;;33.26;32.01